Time;durP1;ratioP1;P1;durP2;ratioP2;P2;SDS_P1;SDS_P2;PMS_P1;PMS_P2;Temp;Humidity;BMP_temperature;BMP_pressure;BME280_temperature;BME280_humidity;BME280_pressure;Samples;Min_cycle;Max_cycle;Signal;HPM_P1;HPM_P2
2021/04/11 00:00:26;;;;;;;0.00;0.00;;;10.50;99.90;;;;;;4993364;28;20066;-90
2021/04/11 00:02:52;;;;;;;0.00;0.00;;;10.40;99.90;;;;;;5004513;28;20033;-90
2021/04/11 00:05:20;;;;;;;0.00;0.00;;;10.40;99.90;;;;;;4998049;28;20895;-90
2021/04/11 00:07:46;;;;;;;0.00;0.00;;;10.40;99.90;;;;;;5004290;28;20065;-89
2021/04/11 00:10:21;;;;;;;0.00;0.00;;;10.40;99.90;;;;;;4998288;28;20027;-89
2021/04/11 00:12:47;;;;;;;0.00;0.00;;;10.50;99.90;;;;;;5003939;28;20034;-89
2021/04/11 00:15:14;;;;;;;0.00;0.00;;;10.50;99.90;;;;;;5004387;28;20092;-90
2021/04/11 00:17:40;;;;;;;0.00;0.00;;;10.50;99.90;;;;;;4993664;28;20495;-89
2021/04/11 00:20:07;;;;;;;0.00;0.00;;;10.50;99.90;;;;;;5003294;28;20042;-90
2021/04/11 00:22:33;;;;;;;0.00;0.00;;;10.50;99.90;;;;;;5007917;28;20022;-89
2021/04/11 00:24:59;;;;;;;0.00;0.00;;;10.50;99.90;;;;;;4992954;28;20034;-89
2021/04/11 00:27:25;;;;;;;0.40;0.40;;;10.50;99.90;;;;;;4998221;28;20973;-89
2021/04/11 00:29:50;;;;;;;0.22;0.20;;;10.40;99.90;;;;;;4992380;28;20041;-89
2021/04/11 00:32:16;;;;;;;0.00;0.00;;;10.40;99.90;;;;;;4994434;28;20022;-90
2021/04/11 00:34:42;;;;;;;0.00;0.00;;;10.40;99.90;;;;;;5006117;28;20030;-89
2021/04/11 00:37:09;;;;;;;0.00;0.00;;;10.40;99.90;;;;;;5000213;28;20022;-89
2021/04/11 00:39:35;;;;;;;0.00;0.00;;;10.40;99.90;;;;;;5002821;28;20034;-89
2021/04/11 00:42:12;;;;;;;0.00;0.00;;;10.50;99.90;;;;;;4989810;28;20030;-90
2021/04/11 00:44:39;;;;;;;0.00;0.00;;;10.40;99.90;;;;;;5001845;28;20118;-90
2021/04/11 00:47:06;;;;;;;0.00;0.00;;;10.40;99.90;;;;;;4990216;28;20018;-90
2021/04/11 00:49:34;;;;;;;0.00;0.00;;;10.50;99.90;;;;;;5004036;28;20089;-90
2021/04/11 00:52:01;;;;;;;0.00;0.00;;;10.40;99.90;;;;;;4998331;28;20049;-90
2021/04/11 00:54:27;;;;;;;0.00;0.00;;;10.50;99.90;;;;;;4996195;28;20026;-90
2021/04/11 00:56:53;;;;;;;0.00;0.00;;;10.50;99.90;;;;;;5008264;28;20516;-89
2021/04/11 00:59:19;;;;;;;0.00;0.00;;;10.50;99.90;;;;;;5001566;28;20045;-90
2021/04/11 01:01:46;;;;;;;0.00;0.00;;;10.50;99.90;;;;;;4990971;28;20034;-90
2021/04/11 01:04:14;;;;;;;0.03;0.03;;;10.50;99.90;;;;;;5000947;28;20022;-90
2021/04/11 01:06:56;;;;;;;0.20;0.20;;;10.50;99.90;;;;;;5012535;28;20035;-90
2021/04/11 01:09:33;;;;;;;0.00;0.00;;;10.60;99.90;;;;;;5010115;28;20029;-90
2021/04/11 01:12:00;;;;;;;0.00;0.00;;;10.50;99.90;;;;;;4994764;28;20038;-91
2021/04/11 01:14:29;;;;;;;0.38;0.20;;;10.60;99.90;;;;;;4998140;28;20096;-89
2021/04/11 01:16:55;;;;;;;0.00;0.00;;;10.60;99.90;;;;;;4992188;28;20076;-90
2021/04/11 01:19:41;;;;;;;0.00;0.00;;;10.60;99.90;;;;;;4997023;28;20053;-90
2021/04/11 01:22:19;;;;;;;0.00;0.00;;;10.60;99.90;;;;;;5010332;28;20026;-91
2021/04/11 01:24:50;;;;;;;0.00;0.00;;;10.60;99.90;;;;;;5017677;28;20494;-91
2021/04/11 01:27:19;;;;;;;0.00;0.00;;;10.60;99.90;;;;;;4998782;28;20448;-91
2021/04/11 01:29:46;;;;;;;0.00;0.00;;;10.60;99.90;;;;;;5003921;28;20105;-91
2021/04/11 01:32:13;;;;;;;0.00;0.00;;;10.50;99.90;;;;;;5010629;28;20081;-90
2021/04/11 01:34:41;;;;;;;0.28;0.20;;;10.50;99.90;;;;;;5011024;28;20137;-90
2021/04/11 01:37:10;;;;;;;0.10;0.10;;;10.40;99.90;;;;;;5008217;28;20493;-90
2021/04/11 01:39:40;;;;;;;0.00;0.00;;;10.50;99.90;;;;;;5010335;28;20030;-89
2021/04/11 01:42:07;;;;;;;0.00;0.00;;;10.60;99.90;;;;;;4994863;28;20023;-90
2021/04/11 01:44:35;;;;;;;0.00;0.00;;;10.60;99.90;;;;;;5007277;28;20445;-90
2021/04/11 01:47:01;;;;;;;0.00;0.00;;;10.50;99.90;;;;;;5009229;28;20544;-90
2021/04/11 01:49:28;;;;;;;0.00;0.00;;;10.60;99.90;;;;;;5003378;28;20030;-90
2021/04/11 01:52:07;;;;;;;0.00;0.00;;;10.50;99.90;;;;;;5011372;28;20034;-89
2021/04/11 01:54:35;;;;;;;0.00;0.00;;;10.50;99.90;;;;;;4997924;28;20072;-90
2021/04/11 01:57:10;;;;;;;0.00;0.00;;;10.50;99.90;;;;;;5007380;28;20034;-90
2021/04/11 01:59:36;;;;;;;0.00;0.00;;;10.40;99.90;;;;;;5008452;28;20023;-90
2021/04/11 02:02:06;;;;;;;0.00;0.00;;;10.40;99.90;;;;;;4991983;28;20491;-90
2021/04/11 02:04:32;;;;;;;0.00;0.00;;;10.40;99.90;;;;;;5000423;28;20038;-90
2021/04/11 02:07:02;;;;;;;0.00;0.00;;;10.60;99.90;;;;;;5007089;28;20027;-90
2021/04/11 02:09:31;;;;;;;0.10;0.10;;;10.60;99.90;;;;;;4998078;28;20105;-90
2021/04/11 02:11:59;;;;;;;0.25;0.25;;;10.50;99.90;;;;;;5005478;28;20401;-90
2021/04/11 02:14:25;;;;;;;0.00;0.00;;;10.50;99.90;;;;;;5009508;28;20026;-89
2021/04/11 02:16:54;;;;;;;0.10;0.10;;;10.50;99.90;;;;;;5009613;28;20099;-90
2021/04/11 02:19:23;;;;;;;0.00;0.00;;;10.60;99.90;;;;;;5011151;28;20030;-90
2021/04/11 02:22:16;;;;;;;0.10;0.10;;;10.60;99.90;;;;;;5011104;28;20054;-90
2021/04/11 02:24:45;;;;;;;0.00;0.00;;;10.40;99.90;;;;;;5007621;28;20041;-90
2021/04/11 02:27:14;;;;;;;0.00;0.00;;;10.50;99.90;;;;;;5007685;28;20045;-89
2021/04/11 02:29:40;;;;;;;0.10;0.10;;;10.40;99.90;;;;;;4989880;28;20030;-90
2021/04/11 02:32:07;;;;;;;0.00;0.00;;;10.40;99.90;;;;;;5001056;28;20034;-89
2021/04/11 02:34:34;;;;;;;0.00;0.00;;;10.20;99.90;;;;;;5009957;28;20685;-90
2021/04/11 02:37:20;;;;;;;;;;;10.20;99.90;;;;;;5009959;28;20025;-90
2021/04/11 02:39:47;;;;;;;0.00;0.00;;;10.20;99.90;;;;;;4994671;28;20309;-89
2021/04/11 02:42:20;;;;;;;0.08;0.08;;;10.10;99.90;;;;;;4990394;28;20033;-90
2021/04/11 02:44:48;;;;;;;0.00;0.00;;;10.10;99.90;;;;;;5006926;28;20030;-90
2021/04/11 02:47:15;;;;;;;0.00;0.00;;;10.10;99.90;;;;;;4994130;28;20030;-90
2021/04/11 02:49:48;;;;;;;0.00;0.00;;;10.10;99.90;;;;;;4990605;28;20030;-90
2021/04/11 02:52:33;;;;;;;0.00;0.00;;;10.00;99.90;;;;;;4990221;28;20073;-90
2021/04/11 02:54:59;;;;;;;0.00;0.00;;;9.90;99.90;;;;;;4999065;28;20049;-90
2021/04/11 02:57:27;;;;;;;0.00;0.00;;;9.90;99.90;;;;;;5007244;28;20743;-90
2021/04/11 02:59:54;;;;;;;0.00;0.00;;;9.70;99.90;;;;;;5009391;28;20033;-91
2021/04/11 03:02:23;;;;;;;0.00;0.00;;;9.60;99.90;;;;;;4992057;28;20443;-91
2021/04/11 03:04:53;;;;;;;0.10;0.10;;;9.70;99.90;;;;;;5018516;28;20041;-91
2021/04/11 03:07:36;;;;;;;0.00;0.00;;;9.70;99.90;;;;;;4990221;28;20113;-91
2021/04/11 03:10:10;;;;;;;0.00;0.00;;;9.70;99.90;;;;;;4990569;28;20031;-91
2021/04/11 03:12:37;;;;;;;0.00;0.00;;;9.80;99.90;;;;;;5006791;28;20041;-91
2021/04/11 03:15:05;;;;;;;0.00;0.00;;;9.80;99.90;;;;;;4997274;28;20498;-91
2021/04/11 03:17:32;;;;;;;0.00;0.00;;;9.80;99.90;;;;;;4997765;28;20026;-92
2021/04/11 03:20:10;;;;;;;0.00;0.00;;;9.90;99.90;;;;;;4999164;28;20033;-89
2021/04/11 03:22:36;;;;;;;0.00;0.00;;;9.90;99.90;;;;;;5006678;28;20037;-88
2021/04/11 03:25:04;;;;;;;0.00;0.00;;;9.80;99.90;;;;;;5008325;28;20070;-89
2021/04/11 03:27:37;;;;;;;0.00;0.00;;;9.60;99.90;;;;;;5007727;28;20034;-90
2021/04/11 03:30:18;;;;;;;0.00;0.00;;;9.70;99.90;;;;;;4999163;28;20963;-89
2021/04/11 03:32:49;;;;;;;0.00;0.00;;;9.60;99.90;;;;;;5005251;28;20034;-89
2021/04/11 03:35:22;;;;;;;0.00;0.00;;;9.60;99.90;;;;;;5005370;28;20068;-89
2021/04/11 03:37:51;;;;;;;0.00;0.00;;;9.50;99.90;;;;;;5001561;28;20025;-89
2021/04/11 03:40:21;;;;;;;0.00;0.00;;;9.50;99.90;;;;;;5003825;28;20076;-90
2021/04/11 03:42:50;;;;;;;0.00;0.00;;;9.50;99.90;;;;;;4989936;28;20037;-90
2021/04/11 03:45:17;;;;;;;0.03;0.03;;;9.60;99.90;;;;;;5005786;28;20037;-91
2021/04/11 03:48:13;;;;;;;0.00;0.00;;;9.70;99.90;;;;;;5008726;28;20136;-90
2021/04/11 03:50:45;;;;;;;0.00;0.00;;;9.80;99.90;;;;;;4986633;28;20061;-90
2021/04/11 03:53:17;;;;;;;0.00;0.00;;;9.60;1.00;;;;;;4992534;28;20061;-90
2021/04/11 03:55:46;;;;;;;0.00;0.00;;;9.50;1.00;;;;;;5008324;28;20518;-89
2021/04/11 03:58:24;;;;;;;0.00;0.00;;;9.60;99.90;;;;;;5000550;28;20068;-89
2021/04/11 04:01:06;;;;;;;0.00;0.00;;;9.70;99.90;;;;;;4998542;28;20075;-90
2021/04/11 04:03:35;;;;;;;0.00;0.00;;;9.60;99.90;;;;;;5009700;28;20100;-90
2021/04/11 04:06:11;;;;;;;0.00;0.00;;;9.40;99.90;;;;;;5007953;28;20087;-89
2021/04/11 04:08:37;;;;;;;0.00;0.00;;;9.30;99.90;;;;;;4993931;28;20579;-89
2021/04/11 04:11:34;;;;;;;0.10;0.10;;;9.40;99.90;;;;;;4988865;28;20788;-90
2021/04/11 04:14:23;;;;;;;0.05;0.05;;;9.50;99.90;;;;;;4991079;28;20026;-90
2021/04/11 04:16:55;;;;;;;0.00;0.00;;;9.40;99.90;;;;;;5005628;28;20045;-90
2021/04/11 04:19:34;;;;;;;0.00;0.00;;;9.30;1.00;;;;;;4995504;28;20027;-90
2021/04/11 04:22:31;;;;;;;0.00;0.00;;;9.30;99.90;;;;;;4991447;28;20051;-90
2021/04/11 04:25:22;;;;;;;0.00;0.00;;;9.30;37.10;;;;;;4988684;28;20026;-90
2021/04/11 04:28:29;;;;;;;0.00;0.00;;;9.30;99.90;;;;;;4989019;28;20058;-91
2021/04/11 04:31:03;;;;;;;0.00;0.00;;;9.50;1.00;;;;;;4974875;28;20031;-90
2021/04/11 04:34:16;;;;;;;0.00;0.00;;;9.50;99.90;;;;;;5005651;28;20058;-91
2021/04/11 04:36:51;;;;;;;0.22;0.22;;;10.00;99.90;;;;;;4894502;29;20068;-90
2021/04/11 04:39:42;;;;;;;0.00;0.00;;;10.60;99.90;;;;;;4903543;29;20033;-90
2021/04/11 04:42:18;;;;;;;0.00;0.00;;;12.90;99.90;;;;;;4908361;29;20535;-90
2021/04/11 04:45:23;;;;;;;0.00;0.00;;;14.50;99.90;;;;;;4892983;29;20063;-89
2021/04/11 04:48:10;;;;;;;0.30;0.30;;;14.20;99.90;;;;;;4895384;29;20742;-89
2021/04/11 04:50:54;;;;;;;0.00;0.00;;;14.20;99.90;;;;;;4901405;29;20036;-88
2021/04/11 04:53:43;;;;;;;0.00;0.00;;;14.10;99.90;;;;;;4878791;29;20051;-88
2021/04/11 04:56:17;;;;;;;0.00;0.00;;;14.20;99.90;;;;;;4895709;29;20037;-90
2021/04/11 04:58:46;;;;;;;0.00;0.00;;;14.30;99.90;;;;;;4895350;29;20029;-89
2021/04/11 05:01:35;;;;;;;0.00;0.00;;;14.40;99.90;;;;;;4886646;29;20122;-89
2021/04/11 05:04:09;;;;;;;0.00;0.00;;;14.40;99.90;;;;;;4862495;29;20533;-90
2021/04/11 05:06:45;;;;;;;0.10;0.10;;;14.50;99.90;;;;;;4910643;29;20067;-90
2021/04/11 05:09:19;;;;;;;0.00;0.00;;;14.50;99.90;;;;;;4912963;29;21133;-90
2021/04/11 05:11:59;;;;;;;0.00;0.00;;;14.70;99.90;;;;;;4937397;28;20043;-90
2021/04/11 05:14:35;;;;;;;0.00;0.00;;;14.80;99.90;;;;;;5017936;28;20032;-90
2021/04/11 05:17:29;;;;;;;0.00;0.00;;;14.90;99.90;;;;;;5012126;28;20084;-90
2021/04/11 05:20:03;;;;;;;0.00;0.00;;;14.90;99.90;;;;;;5009104;28;20076;-89
2021/04/11 05:22:40;;;;;;;0.00;0.00;;;15.00;99.90;;;;;;4993539;28;20030;-89
2021/04/11 05:25:38;;;;;;;;;;;15.00;99.90;;;;;;5007184;28;20057;-89
2021/04/11 05:28:24;;;;;;;0.38;0.38;;;15.10;99.90;;;;;;4978978;28;20174;-90
2021/04/11 05:30:58;;;;;;;0.00;0.00;;;15.00;99.90;;;;;;5012294;28;20124;-91
2021/04/11 05:33:24;;;;;;;0.00;0.00;;;15.10;99.90;;;;;;5025426;28;20049;-90
2021/04/11 05:36:00;;;;;;;0.28;0.28;;;15.10;99.90;;;;;;5012689;28;20096;-90
2021/04/11 05:38:38;;;;;;;0.00;0.00;;;15.10;99.90;;;;;;4998221;28;20022;-90
2021/04/11 05:41:15;;;;;;;0.00;0.00;;;15.20;99.90;;;;;;5006676;28;20775;-90
2021/04/11 05:43:58;;;;;;;0.00;0.00;;;15.10;99.90;;;;;;5007657;28;20128;-89
2021/04/11 05:46:35;;;;;;;0.00;0.00;;;15.10;99.90;;;;;;5002950;28;20042;-89
2021/04/11 05:49:03;;;;;;;;;;;15.10;99.90;;;;;;5001344;28;20097;-91
2021/04/11 05:51:35;;;;;;;0.00;0.00;;;15.10;99.90;;;;;;5007117;28;19913;-89
2021/04/11 05:54:14;;;;;;;0.00;0.00;;;15.10;99.90;;;;;;4992363;28;20123;-88
2021/04/11 05:56:44;;;;;;;0.00;0.00;;;15.20;99.90;;;;;;5008151;28;20042;-88
2021/04/11 05:59:21;;;;;;;0.10;0.10;;;15.20;99.90;;;;;;5007275;28;20026;-88
2021/04/11 06:01:58;;;;;;;0.00;0.00;;;15.20;99.90;;;;;;4991981;28;20039;-88
2021/04/11 06:04:47;;;;;;;0.10;0.10;;;15.20;99.90;;;;;;5002633;28;20049;-90
2021/04/11 06:07:55;;;;;;;0.10;0.10;;;15.20;99.90;;;;;;5000926;28;20819;-89
2021/04/11 06:10:52;;;;;;;0.00;0.00;;;15.30;99.90;;;;;;5007964;28;20033;-88
2021/04/11 06:13:52;;;;;;;0.10;0.10;;;15.40;99.90;;;;;;4997354;28;20101;-90
2021/04/11 06:16:21;;;;;;;0.00;0.00;;;15.30;99.90;;;;;;4995811;28;20080;-90
2021/04/11 06:18:51;;;;;;;0.00;0.00;;;15.40;99.90;;;;;;4990839;28;20037;-89
2021/04/11 06:21:30;;;;;;;0.00;0.00;;;15.30;99.90;;;;;;5005409;28;20050;-89
2021/04/11 06:24:18;;;;;;;0.00;0.00;;;15.30;99.90;;;;;;5005751;28;20062;-89
2021/04/11 06:26:55;;;;;;;0.00;0.00;;;15.10;99.90;;;;;;5019079;28;20103;-89
2021/04/11 06:29:25;;;;;;;0.00;0.00;;;15.20;99.90;;;;;;5020989;28;20035;-90
2021/04/11 06:32:03;;;;;;;0.00;0.00;;;15.10;99.90;;;;;;4991164;28;20518;-89
2021/04/11 06:34:45;;;;;;;0.00;0.00;;;15.10;99.90;;;;;;4990780;28;20391;-90
2021/04/11 06:37:19;;;;;;;0.10;0.10;;;15.20;99.90;;;;;;5008132;28;20025;-90
2021/04/11 06:39:48;;;;;;;0.00;0.00;;;15.20;99.90;;;;;;5009140;28;20025;-89
2021/04/11 06:42:35;;;;;;;0.00;0.00;;;15.40;99.90;;;;;;5008340;28;20145;-89
2021/04/11 06:45:13;;;;;;;0.10;0.10;;;15.40;99.90;;;;;;5008809;28;20032;-88
2021/04/11 06:48:06;;;;;;;0.00;0.00;;;15.30;99.90;;;;;;5001592;28;20138;-87
2021/04/11 06:50:50;;;;;;;0.00;0.00;;;15.30;99.90;;;;;;4991034;28;20030;-89
2021/04/11 06:53:28;;;;;;;0.03;0.03;;;15.30;99.90;;;;;;5024508;28;20033;-89
2021/04/11 06:56:20;;;;;;;0.15;0.15;;;15.20;99.90;;;;;;4995933;28;20026;-89
2021/04/11 06:59:11;;;;;;;0.00;0.00;;;15.30;99.90;;;;;;4989042;28;20091;-88
2021/04/11 07:01:55;;;;;;;0.00;0.00;;;15.20;99.90;;;;;;4989901;28;20026;-89
2021/04/11 07:04:49;;;;;;;0.00;0.00;;;15.10;99.90;;;;;;5000636;28;20462;-87
2021/04/11 07:08:12;;;;;;;0.40;0.40;;;15.20;99.90;;;;;;5014379;28;20038;-87
2021/04/11 07:11:10;;;;;;;0.00;0.00;;;15.20;99.90;;;;;;4996651;28;20044;-88
2021/04/11 07:13:49;;;;;;;0.00;0.00;;;15.20;99.90;;;;;;4999900;28;20026;-88
2021/04/11 07:17:11;;;;;;;0.10;0.10;;;15.30;99.90;;;;;;5001977;28;20026;-88
2021/04/11 07:20:14;;;;;;;0.10;0.10;;;15.30;99.90;;;;;;4901170;29;20040;-88
2021/04/11 07:23:03;;;;;;;0.00;0.00;;;15.20;99.90;;;;;;4884832;29;20484;-88
2021/04/11 07:25:34;;;;;;;0.22;0.22;;;15.30;99.90;;;;;;4898680;29;20082;-88
2021/04/11 07:28:20;;;;;;;0.25;0.20;;;15.30;99.90;;;;;;4888569;29;20028;-88
2021/04/11 07:31:13;;;;;;;0.10;0.10;;;15.30;99.90;;;;;;4903901;29;20051;-88
2021/04/11 07:34:00;;;;;;;0.00;0.00;;;15.40;99.90;;;;;;4904050;29;20480;-88
2021/04/11 07:36:35;;;;;;;0.20;0.20;;;15.50;99.90;;;;;;4903894;29;20051;-89
2021/04/11 07:39:28;;;;;;;0.00;0.00;;;15.50;99.90;;;;;;4889234;29;20024;-89
2021/04/11 07:42:29;;;;;;;0.40;0.40;;;15.60;99.90;;;;;;4903954;29;20115;-86
2021/04/11 07:45:24;;;;;;;1.75;1.38;;;15.60;99.90;;;;;;4904297;29;20119;-86
2021/04/11 07:48:27;;;;;;;1.02;1.02;;;15.60;99.90;;;;;;4904920;29;20032;-86
2021/04/11 07:51:35;;;;;;;0.30;0.30;;;15.50;99.90;;;;;;4981787;28;20040;-87
2021/04/11 07:54:32;;;;;;;0.10;0.10;;;15.50;99.90;;;;;;4997094;28;20097;-86
2021/04/11 07:57:12;;;;;;;0.10;0.10;;;15.50;99.90;;;;;;5013563;28;20018;-86
2021/04/11 07:59:44;;;;;;;0.00;0.00;;;15.50;99.90;;;;;;4998975;28;20062;-86
2021/04/11 08:02:26;;;;;;;0.43;0.30;;;15.50;99.90;;;;;;5003052;28;20461;-87
2021/04/11 08:05:29;;;;;;;0.10;0.10;;;15.50;99.90;;;;;;4998523;28;20029;-86
2021/04/11 08:07:58;;;;;;;0.00;0.00;;;15.50;99.90;;;;;;4993460;28;20046;-85
2021/04/11 08:10:43;;;;;;;0.00;0.00;;;15.60;99.90;;;;;;4999064;28;20026;-88
2021/04/11 08:13:35;;;;;;;0.00;0.00;;;15.70;99.90;;;;;;4995360;28;20030;-92
2021/04/11 08:16:08;;;;;;;1.45;0.50;;;15.70;99.90;;;;;;5007717;28;20022;-88
2021/04/11 08:19:01;;;;;;;0.10;0.10;;;15.60;99.90;;;;;;4996567;28;20022;-90
2021/04/11 08:21:42;;;;;;;2.45;1.25;;;15.70;99.90;;;;;;5008102;28;20037;-89
2021/04/11 08:24:24;;;;;;;0.30;0.30;;;15.90;99.90;;;;;;5012415;28;20056;-91
2021/04/11 08:27:25;;;;;;;0.63;0.52;;;15.90;99.90;;;;;;5023504;28;20041;-90
2021/04/11 08:30:07;;;;;;;4.20;1.30;;;15.70;99.90;;;;;;5025703;28;20076;-89
2021/04/11 08:32:58;;;;;;;1.10;0.95;;;15.80;99.90;;;;;;5010667;28;20032;-87
2021/04/11 08:36:02;;;;;;;0.10;0.10;;;15.70;99.90;;;;;;5027782;28;20029;-88
2021/04/11 08:38:53;;;;;;;0.00;0.00;;;15.50;99.90;;;;;;5008177;28;20021;-88
2021/04/11 08:41:37;;;;;;;0.35;0.30;;;15.70;99.90;;;;;;4982966;28;20038;-86
2021/04/11 08:44:19;;;;;;;0.00;0.00;;;15.50;99.90;;;;;;4995330;28;20126;-87
2021/04/11 08:47:02;;;;;;;0.00;0.00;;;15.60;99.90;;;;;;5021617;28;20038;-88
2021/04/11 08:49:59;;;;;;;0.00;0.00;;;15.70;99.90;;;;;;5012176;28;20029;-88
2021/04/11 08:52:37;;;;;;;0.10;0.10;;;15.60;99.90;;;;;;5001074;28;20449;-88
2021/04/11 08:55:19;;;;;;;0.35;0.35;;;15.50;99.90;;;;;;5002962;28;20041;-90
2021/04/11 08:58:04;;;;;;;0.13;0.13;;;15.30;99.90;;;;;;4999303;28;20026;-90
2021/04/11 09:01:05;;;;;;;1.67;1.55;;;15.40;99.90;;;;;;5004247;28;20026;-90
2021/04/11 09:03:47;;;;;;;0.63;0.63;;;15.30;99.90;;;;;;5001633;28;20033;-90
2021/04/11 09:06:43;;;;;;;0.28;0.28;;;15.30;99.90;;;;;;5013449;28;20034;-89
2021/04/11 09:09:28;;;;;;;0.20;0.20;;;15.30;99.90;;;;;;5010759;28;20022;-88
2021/04/11 09:12:25;;;;;;;0.55;0.55;;;15.40;99.90;;;;;;5031018;28;20076;-89
2021/04/11 09:14:54;;;;;;;1.15;0.65;;;15.50;99.90;;;;;;4992124;28;20127;-90
2021/04/11 09:17:40;;;;;;;0.43;0.43;;;15.40;99.90;;;;;;4992121;28;20482;-89
2021/04/11 09:20:35;;;;;;;0.38;0.38;;;15.50;99.90;;;;;;4991830;28;20038;-91
2021/04/11 09:23:09;;;;;;;1.35;1.33;;;15.60;99.90;;;;;;5022856;28;20493;-90
2021/04/11 09:25:36;;;;;;;0.20;0.20;;;15.80;99.90;;;;;;5012190;28;20034;-90
2021/04/11 09:28:13;;;;;;;;;;;15.90;99.90;;;;;;5012788;28;20030;-89
2021/04/11 09:31:24;;;;;;;0.10;0.10;;;16.10;99.90;;;;;;5012256;28;19917;-91
2021/04/11 09:34:07;;;;;;;0.63;0.63;;;16.50;99.90;;;;;;4972277;28;20050;-91
2021/04/11 09:36:36;;;;;;;0.85;0.85;;;16.60;99.90;;;;;;4964971;28;20077;-89
2021/04/11 09:39:14;;;;;;;1.70;1.27;;;16.60;99.90;;;;;;4968586;28;20038;-89
2021/04/11 09:41:50;;;;;;;1.88;1.73;;;16.60;99.90;;;;;;4980444;28;20081;-87
2021/04/11 09:44:35;;;;;;;0.50;0.50;;;16.50;99.90;;;;;;4964333;28;20046;-89
2021/04/11 09:47:25;;;;;;;0.43;0.43;;;16.60;99.90;;;;;;4973025;28;20022;-89
2021/04/11 09:49:51;;;;;;;1.75;0.98;;;16.70;99.90;;;;;;4966508;28;20125;-89
2021/04/11 09:52:41;;;;;;;0.50;0.50;;;17.00;99.90;;;;;;4972676;28;20246;-89
2021/04/11 09:55:22;;;;;;;0.47;0.47;;;17.20;99.90;;;;;;4968837;28;20517;-87
2021/04/11 09:57:58;;;;;;;1.15;1.05;;;17.40;99.90;;;;;;4970024;28;20593;-90
2021/04/11 10:00:36;;;;;;;1.80;1.27;;;17.20;99.90;;;;;;4968090;28;20026;-89
2021/04/11 10:03:11;;;;;;;1.08;1.08;;;17.20;99.90;;;;;;4964200;28;20030;-89
2021/04/11 10:06:03;;;;;;;0.35;0.35;;;17.00;99.90;;;;;;4981180;28;20553;-88
2021/04/11 10:08:54;;;;;;;0.40;0.40;;;16.90;99.90;;;;;;4961789;28;20038;-92
2021/04/11 10:11:38;;;;;;;0.20;0.20;;;16.80;99.90;;;;;;5002461;28;20038;-89
2021/04/11 10:14:33;;;;;;;0.73;0.73;;;16.90;99.90;;;;;;5023626;28;20033;-88
2021/04/11 10:17:20;;;;;;;0.67;0.67;;;16.80;99.90;;;;;;4995667;28;20042;-91
2021/04/11 10:20:17;;;;;;;0.40;0.40;;;16.80;99.90;;;;;;4993428;28;20088;-87
2021/04/11 10:23:02;;;;;;;0.00;0.00;;;16.80;99.90;;;;;;5003707;28;20061;-89
2021/04/11 10:25:49;;;;;;;3.85;1.40;;;16.80;99.90;;;;;;5016768;28;20026;-87
2021/04/11 10:28:46;;;;;;;0.55;0.47;;;16.60;99.90;;;;;;4998627;28;20462;-86
2021/04/11 10:31:39;;;;;;;0.10;0.10;;;16.60;99.90;;;;;;4999998;28;20396;-87
2021/04/11 10:34:28;;;;;;;0.00;0.00;;;16.70;99.90;;;;;;4970549;28;20846;-89
2021/04/11 10:37:23;;;;;;;0.40;0.40;;;16.70;99.90;;;;;;4986508;28;20073;-89
2021/04/11 10:40:52;;;;;;;0.20;0.20;;;16.60;99.90;;;;;;4973266;28;20036;-86
2021/04/11 10:43:30;;;;;;;0.05;0.05;;;16.70;99.90;;;;;;4928108;29;20040;-87
2021/04/11 10:46:24;;;;;;;0.90;0.30;;;16.70;99.90;;;;;;4924802;29;20046;-86
2021/04/11 10:49:18;;;;;;;0.13;0.13;;;16.80;99.90;;;;;;4912441;29;20492;-87
2021/04/11 10:52:02;;;;;;;1.58;1.35;;;16.90;99.90;;;;;;4928425;29;20043;-87
2021/04/11 10:54:59;;;;;;;0.73;0.73;;;17.30;99.90;;;;;;4925234;29;20052;-87
2021/04/11 10:57:50;;;;;;;0.68;0.68;;;17.30;99.90;;;;;;4924942;29;20671;-87
2021/04/11 11:00:18;;;;;;;1.83;1.60;;;17.50;99.90;;;;;;4927826;29;20106;-87
2021/04/11 11:03:37;;;;;;;5.05;1.95;;;17.30;99.90;;;;;;4931217;29;20023;-87
2021/04/11 11:06:26;;;;;;;0.25;0.25;;;17.20;99.90;;;;;;4910949;29;20035;-86
2021/04/11 11:09:11;;;;;;;0.38;0.38;;;17.40;99.90;;;;;;4910639;29;20024;-88
2021/04/11 11:11:36;;;;;;;0.50;0.50;;;17.30;99.90;;;;;;4912173;29;20040;-88
2021/04/11 11:14:30;;;;;;;0.17;0.17;;;17.50;99.90;;;;;;4927108;28;20043;-86
2021/04/11 11:17:22;;;;;;;0.20;0.20;;;17.40;99.90;;;;;;4942103;29;20119;-86
2021/04/11 11:20:16;;;;;;;0.17;0.17;;;17.30;99.90;;;;;;4944459;29;20106;-85
2021/04/11 11:23:02;;;;;;;0.95;0.95;;;17.20;99.90;;;;;;4937364;28;20061;-85
2021/04/11 11:26:00;;;;;;;1.02;0.52;;;17.40;99.90;;;;;;4942665;29;20093;-88
2021/04/11 11:28:51;;;;;;;0.17;0.17;;;17.50;99.90;;;;;;4946907;28;20046;-92
2021/04/11 11:31:45;;;;;;;0.52;0.52;;;17.10;99.90;;;;;;4950284;28;20034;-91
2021/04/11 11:34:28;;;;;;;0.52;0.52;;;16.90;99.90;;;;;;4945922;29;20728;-91
2021/04/11 11:37:19;;;;;;;0.30;0.30;;;16.70;99.90;;;;;;4946304;28;20059;-91
2021/04/11 11:40:08;;;;;;;0.25;0.25;;;16.10;99.90;;;;;;4976893;28;20060;-92
2021/04/11 11:43:00;;;;;;;0.28;0.28;;;15.50;99.90;;;;;;5011311;28;20053;-92
2021/04/11 11:46:12;;;;;;;0.28;0.28;;;15.50;99.90;;;;;;5009028;28;20518;-91
2021/04/11 11:49:03;;;;;;;0.80;0.75;;;14.80;99.90;;;;;;5001597;28;20044;-91
2021/04/11 11:52:00;;;;;;;0.10;0.10;;;14.40;99.90;;;;;;5021934;28;20038;-89
2021/04/11 11:54:47;;;;;;;0.10;0.10;;;13.90;99.90;;;;;;5000837;28;20038;-91
2021/04/11 11:57:32;;;;;;;;;;;14.00;99.90;;;;;;5001647;28;20041;-90
2021/04/11 12:00:37;;;;;;;0.13;0.13;;;14.30;99.90;;;;;;5015983;28;19912;-90
2021/04/11 12:03:24;;;;;;;0.00;0.00;;;14.90;99.90;;;;;;4966487;28;20117;-90
2021/04/11 12:06:26;;;;;;;0.35;0.20;;;14.80;99.90;;;;;;4963065;28;20034;-90
2021/04/11 12:09:14;;;;;;;0.38;0.38;;;14.80;99.90;;;;;;4966298;28;20057;-91
2021/04/11 12:11:55;;;;;;;0.30;0.30;;;15.00;99.90;;;;;;4959771;28;20031;-90
2021/04/11 12:14:47;;;;;;;0.20;0.20;;;15.50;99.90;;;;;;4978034;28;20443;-90
2021/04/11 12:17:20;;;;;;;0.10;0.10;;;15.40;99.90;;;;;;4966227;28;20041;-90
2021/04/11 12:19:54;;;;;;;0.00;0.00;;;15.70;99.90;;;;;;4981606;28;20023;-90
2021/04/11 12:22:42;;;;;;;1.05;1.02;;;15.70;99.90;;;;;;4971068;28;20037;-91
2021/04/11 12:25:27;;;;;;;7.22;1.27;;;15.70;99.90;;;;;;4971296;28;20662;-87
2021/04/11 12:27:54;;;;;;;0.28;0.28;;;15.70;99.90;;;;;;4961232;28;20070;-88
2021/04/11 12:30:33;;;;;;;0.47;0.40;;;15.60;99.90;;;;;;4963969;28;20030;-87
2021/04/11 12:33:17;;;;;;;0.10;0.10;;;15.70;99.90;;;;;;4980163;28;20731;-88
2021/04/11 12:36:08;;;;;;;0.32;0.32;;;15.90;99.90;;;;;;5001271;28;20022;-87
2021/04/11 12:38:48;;;;;;;0.22;0.22;;;15.70;99.90;;;;;;5003511;28;20044;-87
2021/04/11 12:41:34;;;;;;;0.65;0.65;;;15.80;99.90;;;;;;4987831;28;20601;-87
2021/04/11 12:44:03;;;;;;;;;;;15.80;99.90;;;;;;5004796;28;20034;-88
2021/04/11 12:46:49;;;;;;;0.10;0.10;;;15.70;99.90;;;;;;4991238;28;19916;-89
2021/04/11 12:49:40;;;;;;;1.67;0.52;;;16.00;99.90;;;;;;4995931;28;20065;-87
2021/04/11 12:52:21;;;;;;;1.33;0.90;;;16.00;99.90;;;;;;5001941;28;20076;-88
2021/04/11 12:55:09;;;;;;;0.57;0.57;;;15.70;99.90;;;;;;4999901;28;20397;-89
2021/04/11 12:57:43;;;;;;;0.68;0.68;;;15.20;99.90;;;;;;5004483;28;20026;-89
2021/04/11 13:00:11;;;;;;;0.10;0.10;;;15.20;99.90;;;;;;5004225;28;20025;-89
2021/04/11 13:02:58;;;;;;;0.00;0.00;;;14.80;99.90;;;;;;4999378;28;20022;-89
2021/04/11 13:05:52;;;;;;;0.13;0.13;;;14.80;99.90;;;;;;5013738;28;20055;-89
2021/04/11 13:09:14;;;;;;;0.10;0.10;;;15.30;99.90;;;;;;5006722;28;20430;-89
2021/04/11 13:11:51;;;;;;;22.48;1.45;;;14.80;99.90;;;;;;4986064;28;20026;-88
2021/04/11 13:14:28;;;;;;;0.00;0.00;;;14.50;99.90;;;;;;4971834;28;20030;-88
2021/04/11 13:17:24;;;;;;;0.28;0.10;;;14.40;99.90;;;;;;4988522;28;20163;-88
2021/04/11 13:20:10;;;;;;;1.15;0.85;;;14.30;99.90;;;;;;4981681;28;20037;-89
2021/04/11 13:23:12;;;;;;;3.77;1.50;;;14.30;99.90;;;;;;4971134;28;20893;-88
2021/04/11 13:25:44;;;;;;;0.00;0.00;;;14.40;99.90;;;;;;4910939;29;20131;-88
2021/04/11 13:28:35;;;;;;;0.10;0.10;;;14.40;99.90;;;;;;4922352;29;20026;-88
2021/04/11 13:31:13;;;;;;;0.00;0.00;;;14.10;99.90;;;;;;4915933;29;20040;-87
2021/04/11 13:33:48;;;;;;;0.45;0.30;;;14.00;99.90;;;;;;4917386;29;20039;-87
2021/04/11 13:36:32;;;;;;;0.13;0.13;;;13.60;99.90;;;;;;4919359;29;20131;-88
2021/04/11 13:39:04;;;;;;;0.10;0.10;;;13.80;99.90;;;;;;4920170;29;20166;-88
2021/04/11 13:41:41;;;;;;;0.85;0.32;;;13.50;99.90;;;;;;4913394;29;20037;-88
2021/04/11 13:44:35;;;;;;;0.00;0.00;;;13.80;99.90;;;;;;4931524;29;20039;-87
2021/04/11 13:47:15;;;;;;;0.10;0.10;;;13.70;99.90;;;;;;4947996;29;20483;-87
2021/04/11 13:49:51;;;;;;;0.65;0.65;;;13.90;99.90;;;;;;4949186;29;20039;-87
2021/04/11 13:52:25;;;;;;;0.10;0.10;;;13.80;99.90;;;;;;4944906;29;20035;-87
2021/04/11 13:55:09;;;;;;;0.10;0.10;;;13.70;99.90;;;;;;4948549;29;20094;-89
2021/04/11 13:57:41;;;;;;;0.00;0.00;;;13.50;99.90;;;;;;4948740;29;20039;-89
2021/04/11 14:00:26;;;;;;;0.10;0.10;;;13.90;99.90;;;;;;4927202;29;20051;-89